sensor_id;sensor_type;location;lat;lon;timestamp;P1;durP1;ratioP1;P2;durP2;ratioP2
18383;SDS011;9318;48.644;9.456;2023-04-24T00:01:53;0.80;;;0.80;;
18383;SDS011;9318;48.644;9.456;2023-04-24T00:04:20;0.80;;;0.80;;
18383;SDS011;9318;48.644;9.456;2023-04-24T00:06:48;0.90;;;0.90;;
18383;SDS011;9318;48.644;9.456;2023-04-24T00:09:18;1.00;;;1.00;;
18383;SDS011;9318;48.644;9.456;2023-04-24T00:11:45;1.00;;;1.00;;
18383;SDS011;9318;48.644;9.456;2023-04-24T00:14:12;1.00;;;1.00;;
18383;SDS011;9318;48.644;9.456;2023-04-24T00:16:39;1.00;;;1.00;;
18383;SDS011;9318;48.644;9.456;2023-04-24T00:19:05;1.00;;;1.00;;
18383;SDS011;9318;48.644;9.456;2023-04-24T00:21:32;1.10;;;1.10;;
18383;SDS011;9318;48.644;9.456;2023-04-24T00:24:00;1.00;;;1.00;;
18383;SDS011;9318;48.644;9.456;2023-04-24T00:26:27;0.90;;;0.90;;
18383;SDS011;9318;48.644;9.456;2023-04-24T00:28:53;0.90;;;0.90;;
18383;SDS011;9318;48.644;9.456;2023-04-24T00:31:20;1.00;;;1.00;;
18383;SDS011;9318;48.644;9.456;2023-04-24T00:33:47;0.90;;;0.90;;
18383;SDS011;9318;48.644;9.456;2023-04-24T00:36:14;0.80;;;0.80;;
18383;SDS011;9318;48.644;9.456;2023-04-24T00:38:41;0.90;;;0.90;;
18383;SDS011;9318;48.644;9.456;2023-04-24T00:41:09;0.90;;;0.90;;
18383;SDS011;9318;48.644;9.456;2023-04-24T00:43:35;1.00;;;1.00;;
18383;SDS011;9318;48.644;9.456;2023-04-24T00:46:02;0.90;;;0.90;;
18383;SDS011;9318;48.644;9.456;2023-04-24T00:48:29;0.90;;;0.90;;
18383;SDS011;9318;48.644;9.456;2023-04-24T00:50:57;1.00;;;1.00;;
18383;SDS011;9318;48.644;9.456;2023-04-24T00:53:24;0.90;;;0.90;;
18383;SDS011;9318;48.644;9.456;2023-04-24T00:55:50;0.90;;;0.90;;
18383;SDS011;9318;48.644;9.456;2023-04-24T00:58:19;0.80;;;0.80;;
18383;SDS011;9318;48.644;9.456;2023-04-24T01:00:46;0.87;;;0.87;;
18383;SDS011;9318;48.644;9.456;2023-04-24T01:03:13;0.90;;;0.90;;
18383;SDS011;9318;48.644;9.456;2023-04-24T01:05:40;0.90;;;0.90;;
18383;SDS011;9318;48.644;9.456;2023-04-24T01:08:07;1.00;;;1.00;;
18383;SDS011;9318;48.644;9.456;2023-04-24T01:10:35;0.93;;;0.93;;
18383;SDS011;9318;48.644;9.456;2023-04-24T01:13:03;1.10;;;1.10;;
18383;SDS011;9318;48.644;9.456;2023-04-24T01:15:31;0.87;;;0.87;;
18383;SDS011;9318;48.644;9.456;2023-04-24T01:17:58;0.80;;;0.80;;
18383;SDS011;9318;48.644;9.456;2023-04-24T01:20:24;1.00;;;1.00;;
18383;SDS011;9318;48.644;9.456;2023-04-24T01:22:53;0.97;;;0.97;;
18383;SDS011;9318;48.644;9.456;2023-04-24T01:25:21;1.00;;;1.00;;
18383;SDS011;9318;48.644;9.456;2023-04-24T01:27:48;0.90;;;0.90;;
18383;SDS011;9318;48.644;9.456;2023-04-24T01:30:15;0.90;;;0.90;;
18383;SDS011;9318;48.644;9.456;2023-04-24T01:32:41;1.00;;;1.00;;
18383;SDS011;9318;48.644;9.456;2023-04-24T01:35:10;0.90;;;0.90;;
18383;SDS011;9318;48.644;9.456;2023-04-24T01:37:37;0.97;;;0.97;;
18383;SDS011;9318;48.644;9.456;2023-04-24T01:40:06;0.93;;;0.93;;
18383;SDS011;9318;48.644;9.456;2023-04-24T01:42:34;1.10;;;1.10;;
18383;SDS011;9318;48.644;9.456;2023-04-24T01:45:01;0.90;;;0.90;;
18383;SDS011;9318;48.644;9.456;2023-04-24T01:47:30;0.90;;;0.90;;
18383;SDS011;9318;48.644;9.456;2023-04-24T01:49:58;1.00;;;1.00;;
18383;SDS011;9318;48.644;9.456;2023-04-24T01:52:25;1.00;;;1.00;;
18383;SDS011;9318;48.644;9.456;2023-04-24T01:54:52;1.00;;;1.00;;
18383;SDS011;9318;48.644;9.456;2023-04-24T01:57:22;1.00;;;1.00;;
18383;SDS011;9318;48.644;9.456;2023-04-24T01:59:49;0.90;;;0.90;;
18383;SDS011;9318;48.644;9.456;2023-04-24T02:02:17;0.90;;;0.90;;
18383;SDS011;9318;48.644;9.456;2023-04-24T02:04:46;0.90;;;0.90;;
18383;SDS011;9318;48.644;9.456;2023-04-24T02:07:12;1.00;;;1.00;;
18383;SDS011;9318;48.644;9.456;2023-04-24T02:09:39;0.90;;;0.90;;
18383;SDS011;9318;48.644;9.456;2023-04-24T02:12:06;1.00;;;1.00;;
18383;SDS011;9318;48.644;9.456;2023-04-24T02:14:34;0.90;;;0.90;;
18383;SDS011;9318;48.644;9.456;2023-04-24T02:17:01;1.00;;;1.00;;
18383;SDS011;9318;48.644;9.456;2023-04-24T02:19:28;0.90;;;0.90;;
18383;SDS011;9318;48.644;9.456;2023-04-24T02:21:54;0.90;;;0.90;;
18383;SDS011;9318;48.644;9.456;2023-04-24T02:24:21;0.80;;;0.80;;
18383;SDS011;9318;48.644;9.456;2023-04-24T02:26:48;0.80;;;0.80;;
18383;SDS011;9318;48.644;9.456;2023-04-24T02:29:15;0.90;;;0.90;;
18383;SDS011;9318;48.644;9.456;2023-04-24T02:31:43;0.90;;;0.90;;
18383;SDS011;9318;48.644;9.456;2023-04-24T02:34:10;0.87;;;0.87;;
18383;SDS011;9318;48.644;9.456;2023-04-24T02:36:36;0.90;;;0.90;;
18383;SDS011;9318;48.644;9.456;2023-04-24T02:39:03;1.00;;;1.00;;
18383;SDS011;9318;48.644;9.456;2023-04-24T02:41:30;0.90;;;0.90;;
18383;SDS011;9318;48.644;9.456;2023-04-24T02:43:57;0.90;;;0.90;;
18383;SDS011;9318;48.644;9.456;2023-04-24T02:46:24;0.90;;;0.90;;
18383;SDS011;9318;48.644;9.456;2023-04-24T02:48:53;1.00;;;1.00;;
18383;SDS011;9318;48.644;9.456;2023-04-24T02:51:19;0.90;;;0.90;;
18383;SDS011;9318;48.644;9.456;2023-04-24T02:53:46;0.80;;;0.80;;
18383;SDS011;9318;48.644;9.456;2023-04-24T02:56:13;0.90;;;0.90;;
18383;SDS011;9318;48.644;9.456;2023-04-24T02:58:40;1.00;;;1.00;;
18383;SDS011;9318;48.644;9.456;2023-04-24T03:01:07;0.90;;;0.90;;
18383;SDS011;9318;48.644;9.456;2023-04-24T03:03:34;0.90;;;0.90;;
18383;SDS011;9318;48.644;9.456;2023-04-24T03:06:03;0.80;;;0.80;;
18383;SDS011;9318;48.644;9.456;2023-04-24T03:08:30;1.00;;;1.00;;
18383;SDS011;9318;48.644;9.456;2023-04-24T03:10:57;1.00;;;1.00;;
18383;SDS011;9318;48.644;9.456;2023-04-24T03:13:24;0.90;;;0.90;;
18383;SDS011;9318;48.644;9.456;2023-04-24T03:15:51;0.90;;;0.90;;
18383;SDS011;9318;48.644;9.456;2023-04-24T03:18:18;1.00;;;1.00;;
18383;SDS011;9318;48.644;9.456;2023-04-24T03:20:45;0.80;;;0.80;;
18383;SDS011;9318;48.644;9.456;2023-04-24T03:23:13;0.90;;;0.90;;
18383;SDS011;9318;48.644;9.456;2023-04-24T03:25:40;0.80;;;0.80;;
18383;SDS011;9318;48.644;9.456;2023-04-24T03:28:07;0.90;;;0.90;;
18383;SDS011;9318;48.644;9.456;2023-04-24T03:30:34;1.00;;;1.00;;
18383;SDS011;9318;48.644;9.456;2023-04-24T03:33:01;0.90;;;0.90;;
18383;SDS011;9318;48.644;9.456;2023-04-24T03:35:28;1.00;;;1.00;;
18383;SDS011;9318;48.644;9.456;2023-04-24T03:37:55;0.93;;;0.93;;
18383;SDS011;9318;48.644;9.456;2023-04-24T03:40:23;1.00;;;1.00;;
18383;SDS011;9318;48.644;9.456;2023-04-24T03:42:49;1.00;;;1.00;;
18383;SDS011;9318;48.644;9.456;2023-04-24T03:45:16;0.93;;;0.93;;
18383;SDS011;9318;48.644;9.456;2023-04-24T03:47:43;1.00;;;1.00;;
18383;SDS011;9318;48.644;9.456;2023-04-24T03:50:10;1.00;;;1.00;;
18383;SDS011;9318;48.644;9.456;2023-04-24T03:52:36;0.97;;;0.97;;
18383;SDS011;9318;48.644;9.456;2023-04-24T03:55:03;0.90;;;0.90;;
18383;SDS011;9318;48.644;9.456;2023-04-24T03:57:32;0.90;;;0.90;;
18383;SDS011;9318;48.644;9.456;2023-04-24T03:59:59;0.80;;;0.80;;
18383;SDS011;9318;48.644;9.456;2023-04-24T04:02:27;0.80;;;0.80;;
18383;SDS011;9318;48.644;9.456;2023-04-24T04:04:54;1.00;;;1.00;;
18383;SDS011;9318;48.644;9.456;2023-04-24T04:07:21;0.90;;;0.90;;
18383;SDS011;9318;48.644;9.456;2023-04-24T04:09:47;1.00;;;1.00;;
18383;SDS011;9318;48.644;9.456;2023-04-24T04:12:14;0.93;;;0.93;;
18383;SDS011;9318;48.644;9.456;2023-04-24T04:14:42;0.90;;;0.90;;
18383;SDS011;9318;48.644;9.456;2023-04-24T04:17:09;0.90;;;0.90;;
18383;SDS011;9318;48.644;9.456;2023-04-24T04:19:36;1.00;;;1.00;;
18383;SDS011;9318;48.644;9.456;2023-04-24T04:22:02;1.00;;;1.00;;
18383;SDS011;9318;48.644;9.456;2023-04-24T04:24:29;0.80;;;0.80;;
18383;SDS011;9318;48.644;9.456;2023-04-24T04:26:56;0.90;;;0.90;;
18383;SDS011;9318;48.644;9.456;2023-04-24T04:29:23;0.90;;;0.90;;
18383;SDS011;9318;48.644;9.456;2023-04-24T04:31:52;0.90;;;0.90;;
18383;SDS011;9318;48.644;9.456;2023-04-24T04:34:20;1.00;;;1.00;;
18383;SDS011;9318;48.644;9.456;2023-04-24T04:36:47;1.00;;;1.00;;
18383;SDS011;9318;48.644;9.456;2023-04-24T04:39:15;0.90;;;0.90;;
18383;SDS011;9318;48.644;9.456;2023-04-24T04:41:43;0.93;;;0.93;;
18383;SDS011;9318;48.644;9.456;2023-04-24T04:44:13;1.00;;;1.00;;
18383;SDS011;9318;48.644;9.456;2023-04-24T04:46:40;0.90;;;0.90;;
18383;SDS011;9318;48.644;9.456;2023-04-24T04:49:08;1.10;;;1.10;;
18383;SDS011;9318;48.644;9.456;2023-04-24T04:51:35;1.00;;;1.00;;
18383;SDS011;9318;48.644;9.456;2023-04-24T04:54:02;0.93;;;0.93;;
18383;SDS011;9318;48.644;9.456;2023-04-24T04:56:29;1.10;;;1.10;;
18383;SDS011;9318;48.644;9.456;2023-04-24T04:58:56;0.90;;;0.90;;
18383;SDS011;9318;48.644;9.456;2023-04-24T05:01:24;0.90;;;0.90;;
18383;SDS011;9318;48.644;9.456;2023-04-24T05:03:52;1.00;;;1.00;;
18383;SDS011;9318;48.644;9.456;2023-04-24T05:06:20;0.90;;;0.90;;
18383;SDS011;9318;48.644;9.456;2023-04-24T05:08:47;0.90;;;0.90;;
18383;SDS011;9318;48.644;9.456;2023-04-24T05:11:14;1.00;;;1.00;;
18383;SDS011;9318;48.644;9.456;2023-04-24T05:13:40;1.00;;;1.00;;
18383;SDS011;9318;48.644;9.456;2023-04-24T05:16:07;0.93;;;0.93;;
18383;SDS011;9318;48.644;9.456;2023-04-24T05:18:34;1.00;;;1.00;;
18383;SDS011;9318;48.644;9.456;2023-04-24T05:21:01;0.97;;;0.97;;
18383;SDS011;9318;48.644;9.456;2023-04-24T05:23:29;0.90;;;0.90;;
18383;SDS011;9318;48.644;9.456;2023-04-24T05:25:56;0.90;;;0.90;;
18383;SDS011;9318;48.644;9.456;2023-04-24T05:28:22;0.80;;;0.80;;
18383;SDS011;9318;48.644;9.456;2023-04-24T05:30:53;1.00;;;1.00;;
18383;SDS011;9318;48.644;9.456;2023-04-24T05:33:20;0.90;;;0.90;;
18383;SDS011;9318;48.644;9.456;2023-04-24T05:35:47;0.90;;;0.90;;
18383;SDS011;9318;48.644;9.456;2023-04-24T05:38:14;0.90;;;0.90;;
18383;SDS011;9318;48.644;9.456;2023-04-24T05:40:44;0.90;;;0.90;;
18383;SDS011;9318;48.644;9.456;2023-04-24T05:43:11;1.10;;;1.10;;
18383;SDS011;9318;48.644;9.456;2023-04-24T05:45:37;1.00;;;1.00;;
18383;SDS011;9318;48.644;9.456;2023-04-24T05:48:04;1.00;;;1.00;;
18383;SDS011;9318;48.644;9.456;2023-04-24T05:50:31;0.90;;;0.90;;
18383;SDS011;9318;48.644;9.456;2023-04-24T05:52:58;0.80;;;0.80;;
18383;SDS011;9318;48.644;9.456;2023-04-24T05:55:26;1.00;;;1.00;;
18383;SDS011;9318;48.644;9.456;2023-04-24T05:57:55;0.90;;;0.90;;
18383;SDS011;9318;48.644;9.456;2023-04-24T06:00:23;1.00;;;1.00;;
18383;SDS011;9318;48.644;9.456;2023-04-24T06:02:50;1.00;;;1.00;;
18383;SDS011;9318;48.644;9.456;2023-04-24T06:05:17;0.90;;;0.90;;
18383;SDS011;9318;48.644;9.456;2023-04-24T06:07:44;0.90;;;0.90;;
18383;SDS011;9318;48.644;9.456;2023-04-24T06:10:11;0.93;;;0.93;;
18383;SDS011;9318;48.644;9.456;2023-04-24T06:12:38;0.87;;;0.87;;
18383;SDS011;9318;48.644;9.456;2023-04-24T06:15:06;0.80;;;0.80;;
18383;SDS011;9318;48.644;9.456;2023-04-24T06:17:34;0.90;;;0.90;;
18383;SDS011;9318;48.644;9.456;2023-04-24T06:20:00;0.90;;;0.90;;
18383;SDS011;9318;48.644;9.456;2023-04-24T06:22:28;1.00;;;1.00;;
18383;SDS011;9318;48.644;9.456;2023-04-24T06:24:55;0.90;;;0.90;;
18383;SDS011;9318;48.644;9.456;2023-04-24T06:27:22;1.00;;;1.00;;
18383;SDS011;9318;48.644;9.456;2023-04-24T06:29:48;1.00;;;1.00;;
18383;SDS011;9318;48.644;9.456;2023-04-24T06:32:20;0.80;;;0.80;;
18383;SDS011;9318;48.644;9.456;2023-04-24T06:34:47;0.90;;;0.90;;
18383;SDS011;9318;48.644;9.456;2023-04-24T06:37:14;0.90;;;0.90;;
18383;SDS011;9318;48.644;9.456;2023-04-24T06:39:41;0.90;;;0.90;;
18383;SDS011;9318;48.644;9.456;2023-04-24T06:42:08;0.80;;;0.80;;
18383;SDS011;9318;48.644;9.456;2023-04-24T06:44:35;0.80;;;0.80;;
18383;SDS011;9318;48.644;9.456;2023-04-24T06:47:05;0.80;;;0.80;;
18383;SDS011;9318;48.644;9.456;2023-04-24T06:49:33;0.70;;;0.70;;
18383;SDS011;9318;48.644;9.456;2023-04-24T06:52:00;0.70;;;0.70;;
18383;SDS011;9318;48.644;9.456;2023-04-24T06:54:27;0.60;;;0.60;;
18383;SDS011;9318;48.644;9.456;2023-04-24T06:56:55;0.55;;;0.55;;
18383;SDS011;9318;48.644;9.456;2023-04-24T06:59:22;0.60;;;0.60;;
18383;SDS011;9318;48.644;9.456;2023-04-24T07:01:49;0.60;;;0.60;;
18383;SDS011;9318;48.644;9.456;2023-04-24T07:04:16;0.60;;;0.60;;
18383;SDS011;9318;48.644;9.456;2023-04-24T07:06:44;0.50;;;0.50;;
18383;SDS011;9318;48.644;9.456;2023-04-24T07:09:11;0.50;;;0.50;;
18383;SDS011;9318;48.644;9.456;2023-04-24T07:11:39;0.68;;;0.68;;
18383;SDS011;9318;48.644;9.456;2023-04-24T07:14:12;0.50;;;0.50;;
18383;SDS011;9318;48.644;9.456;2023-04-24T07:16:39;0.47;;;0.47;;
18383;SDS011;9318;48.644;9.456;2023-04-24T07:19:06;0.55;;;0.55;;
18383;SDS011;9318;48.644;9.456;2023-04-24T07:21:32;0.60;;;0.60;;
18383;SDS011;9318;48.644;9.456;2023-04-24T07:24:01;0.60;;;0.60;;
18383;SDS011;9318;48.644;9.456;2023-04-24T07:26:28;0.55;;;0.55;;
18383;SDS011;9318;48.644;9.456;2023-04-24T07:28:56;0.60;;;0.60;;
18383;SDS011;9318;48.644;9.456;2023-04-24T07:31:22;0.50;;;0.50;;
18383;SDS011;9318;48.644;9.456;2023-04-24T07:33:49;0.70;;;0.70;;
18383;SDS011;9318;48.644;9.456;2023-04-24T07:36:16;0.57;;;0.57;;
18383;SDS011;9318;48.644;9.456;2023-04-24T07:38:44;0.70;;;0.70;;
18383;SDS011;9318;48.644;9.456;2023-04-24T07:41:12;0.63;;;0.63;;
18383;SDS011;9318;48.644;9.456;2023-04-24T07:43:39;0.70;;;0.70;;
18383;SDS011;9318;48.644;9.456;2023-04-24T07:46:05;0.70;;;0.70;;
18383;SDS011;9318;48.644;9.456;2023-04-24T07:48:32;0.70;;;0.70;;
18383;SDS011;9318;48.644;9.456;2023-04-24T07:50:59;0.80;;;0.80;;
18383;SDS011;9318;48.644;9.456;2023-04-24T07:53:26;0.80;;;0.80;;
18383;SDS011;9318;48.644;9.456;2023-04-24T07:55:53;0.73;;;0.73;;
18383;SDS011;9318;48.644;9.456;2023-04-24T07:58:21;0.90;;;0.90;;
18383;SDS011;9318;48.644;9.456;2023-04-24T08:00:48;0.90;;;0.90;;
18383;SDS011;9318;48.644;9.456;2023-04-24T08:03:15;0.80;;;0.80;;
18383;SDS011;9318;48.644;9.456;2023-04-24T08:05:44;0.80;;;0.80;;
18383;SDS011;9318;48.644;9.456;2023-04-24T08:08:11;0.80;;;0.80;;
18383;SDS011;9318;48.644;9.456;2023-04-24T08:10:38;0.90;;;0.90;;
18383;SDS011;9318;48.644;9.456;2023-04-24T08:13:04;0.70;;;0.70;;
18383;SDS011;9318;48.644;9.456;2023-04-24T08:15:32;0.90;;;0.90;;
18383;SDS011;9318;48.644;9.456;2023-04-24T08:17:59;0.90;;;0.90;;
18383;SDS011;9318;48.644;9.456;2023-04-24T08:20:26;0.83;;;0.83;;
18383;SDS011;9318;48.644;9.456;2023-04-24T08:22:53;0.90;;;0.90;;
18383;SDS011;9318;48.644;9.456;2023-04-24T08:25:20;0.90;;;0.90;;
18383;SDS011;9318;48.644;9.456;2023-04-24T08:27:48;1.00;;;1.00;;
18383;SDS011;9318;48.644;9.456;2023-04-24T08:30:14;0.90;;;0.90;;
18383;SDS011;9318;48.644;9.456;2023-04-24T08:32:43;0.90;;;0.90;;
18383;SDS011;9318;48.644;9.456;2023-04-24T08:35:09;0.90;;;0.90;;
18383;SDS011;9318;48.644;9.456;2023-04-24T08:37:36;1.00;;;1.00;;
18383;SDS011;9318;48.644;9.456;2023-04-24T08:40:05;1.00;;;1.00;;
18383;SDS011;9318;48.644;9.456;2023-04-24T08:42:37;0.90;;;0.90;;
18383;SDS011;9318;48.644;9.456;2023-04-24T08:45:05;0.90;;;0.90;;
18383;SDS011;9318;48.644;9.456;2023-04-24T08:47:33;0.70;;;0.70;;
18383;SDS011;9318;48.644;9.456;2023-04-24T08:50:03;0.70;;;0.70;;
18383;SDS011;9318;48.644;9.456;2023-04-24T08:52:31;0.60;;;0.60;;
18383;SDS011;9318;48.644;9.456;2023-04-24T08:54:59;0.80;;;0.80;;
18383;SDS011;9318;48.644;9.456;2023-04-24T08:57:26;0.68;;;0.68;;
18383;SDS011;9318;48.644;9.456;2023-04-24T08:59:54;0.60;;;0.60;;
18383;SDS011;9318;48.644;9.456;2023-04-24T09:02:22;0.68;;;0.68;;
18383;SDS011;9318;48.644;9.456;2023-04-24T09:04:49;0.50;;;0.50;;
18383;SDS011;9318;48.644;9.456;2023-04-24T09:07:18;0.60;;;0.60;;
18383;SDS011;9318;48.644;9.456;2023-04-24T09:09:46;0.60;;;0.60;;
18383;SDS011;9318;48.644;9.456;2023-04-24T09:12:13;0.70;;;0.70;;
18383;SDS011;9318;48.644;9.456;2023-04-24T09:14:41;0.75;;;0.75;;
18383;SDS011;9318;48.644;9.456;2023-04-24T09:17:10;0.70;;;0.70;;
18383;SDS011;9318;48.644;9.456;2023-04-24T09:19:36;0.70;;;0.70;;
18383;SDS011;9318;48.644;9.456;2023-04-24T09:22:04;0.70;;;0.70;;
18383;SDS011;9318;48.644;9.456;2023-04-24T09:24:33;0.80;;;0.80;;
18383;SDS011;9318;48.644;9.456;2023-04-24T09:27:01;0.80;;;0.80;;
18383;SDS011;9318;48.644;9.456;2023-04-24T09:29:29;0.90;;;0.90;;
18383;SDS011;9318;48.644;9.456;2023-04-24T09:31:57;0.90;;;0.90;;
18383;SDS011;9318;48.644;9.456;2023-04-24T09:34:25;0.70;;;0.70;;
18383;SDS011;9318;48.644;9.456;2023-04-24T09:36:53;0.73;;;0.73;;
18383;SDS011;9318;48.644;9.456;2023-04-24T09:39:20;0.90;;;0.90;;
18383;SDS011;9318;48.644;9.456;2023-04-24T09:41:50;0.80;;;0.80;;
18383;SDS011;9318;48.644;9.456;2023-04-24T09:44:18;0.90;;;0.90;;
18383;SDS011;9318;48.644;9.456;2023-04-24T09:46:48;0.90;;;0.90;;
18383;SDS011;9318;48.644;9.456;2023-04-24T09:49:21;0.93;;;0.93;;
18383;SDS011;9318;48.644;9.456;2023-04-24T09:51:48;0.90;;;0.90;;
18383;SDS011;9318;48.644;9.456;2023-04-24T09:54:15;1.00;;;1.00;;
18383;SDS011;9318;48.644;9.456;2023-04-24T09:56:45;0.90;;;0.90;;
18383;SDS011;9318;48.644;9.456;2023-04-24T09:59:14;0.90;;;0.90;;
18383;SDS011;9318;48.644;9.456;2023-04-24T10:01:41;0.90;;;0.90;;
18383;SDS011;9318;48.644;9.456;2023-04-24T10:04:15;0.90;;;0.90;;
18383;SDS011;9318;48.644;9.456;2023-04-24T10:06:44;0.80;;;0.80;;
18383;SDS011;9318;48.644;9.456;2023-04-24T10:09:12;0.90;;;0.90;;
18383;SDS011;9318;48.644;9.456;2023-04-24T10:11:41;0.80;;;0.80;;
18383;SDS011;9318;48.644;9.456;2023-04-24T10:14:09;0.80;;;0.80;;
18383;SDS011;9318;48.644;9.456;2023-04-24T10:16:40;1.10;;;1.10;;
18383;SDS011;9318;48.644;9.456;2023-04-24T10:19:11;0.90;;;0.90;;
18383;SDS011;9318;48.644;9.456;2023-04-24T10:21:40;0.90;;;0.90;;
18383;SDS011;9318;48.644;9.456;2023-04-24T10:24:11;0.70;;;0.70;;
18383;SDS011;9318;48.644;9.456;2023-04-24T10:26:38;0.80;;;0.80;;
18383;SDS011;9318;48.644;9.456;2023-04-24T10:29:06;0.80;;;0.80;;
18383;SDS011;9318;48.644;9.456;2023-04-24T10:31:34;0.80;;;0.80;;
18383;SDS011;9318;48.644;9.456;2023-04-24T10:34:04;0.90;;;0.90;;
18383;SDS011;9318;48.644;9.456;2023-04-24T10:36:31;0.90;;;0.90;;
18383;SDS011;9318;48.644;9.456;2023-04-24T10:39:00;0.90;;;0.90;;
18383;SDS011;9318;48.644;9.456;2023-04-24T10:41:30;0.73;;;0.73;;
18383;SDS011;9318;48.644;9.456;2023-04-24T10:44:06;0.80;;;0.80;;
18383;SDS011;9318;48.644;9.456;2023-04-24T10:46:33;0.80;;;0.80;;
18383;SDS011;9318;48.644;9.456;2023-04-24T10:49:04;0.80;;;0.80;;
18383;SDS011;9318;48.644;9.456;2023-04-24T10:51:44;0.80;;;0.80;;
18383;SDS011;9318;48.644;9.456;2023-04-24T10:54:21;0.70;;;0.70;;
18383;SDS011;9318;48.644;9.456;2023-04-24T10:56:49;0.80;;;0.80;;
18383;SDS011;9318;48.644;9.456;2023-04-24T10:59:23;0.80;;;0.80;;
18383;SDS011;9318;48.644;9.456;2023-04-24T11:01:52;0.80;;;0.80;;
18383;SDS011;9318;48.644;9.456;2023-04-24T11:04:30;0.87;;;0.87;;
18383;SDS011;9318;48.644;9.456;2023-04-24T11:07:00;0.83;;;0.83;;
18383;SDS011;9318;48.644;9.456;2023-04-24T11:09:28;0.63;;;0.63;;
18383;SDS011;9318;48.644;9.456;2023-04-24T11:12:03;0.80;;;0.80;;
18383;SDS011;9318;48.644;9.456;2023-04-24T11:17:30;0.80;;;0.80;;
18383;SDS011;9318;48.644;9.456;2023-04-24T11:20:02;0.80;;;0.80;;
18383;SDS011;9318;48.644;9.456;2023-04-24T11:22:32;0.90;;;0.90;;
18383;SDS011;9318;48.644;9.456;2023-04-24T11:25:01;0.90;;;0.90;;
18383;SDS011;9318;48.644;9.456;2023-04-24T11:27:29;0.80;;;0.80;;
18383;SDS011;9318;48.644;9.456;2023-04-24T11:30:00;0.80;;;0.80;;
18383;SDS011;9318;48.644;9.456;2023-04-24T11:32:28;0.80;;;0.80;;
18383;SDS011;9318;48.644;9.456;2023-04-24T11:34:56;0.80;;;0.80;;
18383;SDS011;9318;48.644;9.456;2023-04-24T11:37:27;0.80;;;0.80;;
18383;SDS011;9318;48.644;9.456;2023-04-24T11:39:56;0.80;;;0.80;;
18383;SDS011;9318;48.644;9.456;2023-04-24T11:42:23;0.90;;;0.90;;
18383;SDS011;9318;48.644;9.456;2023-04-24T11:44:51;0.90;;;0.90;;
18383;SDS011;9318;48.644;9.456;2023-04-24T11:47:19;0.80;;;0.80;;
18383;SDS011;9318;48.644;9.456;2023-04-24T11:49:45;0.90;;;0.90;;
18383;SDS011;9318;48.644;9.456;2023-04-24T11:52:15;0.90;;;0.90;;
18383;SDS011;9318;48.644;9.456;2023-04-24T11:54:47;0.90;;;0.90;;
18383;SDS011;9318;48.644;9.456;2023-04-24T11:57:15;0.90;;;0.90;;
18383;SDS011;9318;48.644;9.456;2023-04-24T11:59:42;0.90;;;0.90;;
18383;SDS011;9318;48.644;9.456;2023-04-24T12:02:08;0.90;;;0.90;;
18383;SDS011;9318;48.644;9.456;2023-04-24T12:04:45;1.00;;;1.00;;
18383;SDS011;9318;48.644;9.456;2023-04-24T12:07:12;0.80;;;0.80;;
18383;SDS011;9318;48.644;9.456;2023-04-24T12:09:42;0.90;;;0.90;;
18383;SDS011;9318;48.644;9.456;2023-04-24T12:12:11;0.80;;;0.80;;
18383;SDS011;9318;48.644;9.456;2023-04-24T12:14:49;0.93;;;0.93;;
18383;SDS011;9318;48.644;9.456;2023-04-24T12:17:16;0.90;;;0.90;;
18383;SDS011;9318;48.644;9.456;2023-04-24T12:19:46;0.90;;;0.90;;
18383;SDS011;9318;48.644;9.456;2023-04-24T12:22:15;0.80;;;0.80;;
18383;SDS011;9318;48.644;9.456;2023-04-24T12:27:28;0.87;;;0.87;;
18383;SDS011;9318;48.644;9.456;2023-04-24T12:29:56;0.90;;;0.90;;
18383;SDS011;9318;48.644;9.456;2023-04-24T12:32:23;0.90;;;0.90;;
18383;SDS011;9318;48.644;9.456;2023-04-24T12:34:51;1.00;;;1.00;;
18383;SDS011;9318;48.644;9.456;2023-04-24T12:37:18;0.87;;;0.87;;
18383;SDS011;9318;48.644;9.456;2023-04-24T12:39:57;0.90;;;0.90;;
18383;SDS011;9318;48.644;9.456;2023-04-24T12:42:27;0.90;;;0.90;;
18383;SDS011;9318;48.644;9.456;2023-04-24T12:44:58;0.90;;;0.90;;
18383;SDS011;9318;48.644;9.456;2023-04-24T12:47:26;0.83;;;0.83;;
18383;SDS011;9318;48.644;9.456;2023-04-24T12:49:53;0.80;;;0.80;;
18383;SDS011;9318;48.644;9.456;2023-04-24T12:52:20;0.87;;;0.87;;
18383;SDS011;9318;48.644;9.456;2023-04-24T12:54:48;0.80;;;0.80;;
18383;SDS011;9318;48.644;9.456;2023-04-24T12:57:15;0.90;;;0.90;;
18383;SDS011;9318;48.644;9.456;2023-04-24T12:59:43;0.90;;;0.90;;
18383;SDS011;9318;48.644;9.456;2023-04-24T13:02:10;0.90;;;0.90;;
18383;SDS011;9318;48.644;9.456;2023-04-24T13:04:37;1.00;;;1.00;;
18383;SDS011;9318;48.644;9.456;2023-04-24T13:07:04;1.00;;;1.00;;
18383;SDS011;9318;48.644;9.456;2023-04-24T13:09:31;0.80;;;0.80;;
18383;SDS011;9318;48.644;9.456;2023-04-24T13:12:00;1.00;;;1.00;;
18383;SDS011;9318;48.644;9.456;2023-04-24T13:14:26;0.93;;;0.93;;
18383;SDS011;9318;48.644;9.456;2023-04-24T13:16:54;0.90;;;0.90;;
18383;SDS011;9318;48.644;9.456;2023-04-24T13:19:21;1.00;;;1.00;;
18383;SDS011;9318;48.644;9.456;2023-04-24T13:21:50;1.00;;;1.00;;
18383;SDS011;9318;48.644;9.456;2023-04-24T13:24:17;1.00;;;1.00;;
18383;SDS011;9318;48.644;9.456;2023-04-24T13:26:43;1.00;;;1.00;;
18383;SDS011;9318;48.644;9.456;2023-04-24T13:29:10;1.00;;;1.00;;
18383;SDS011;9318;48.644;9.456;2023-04-24T13:31:37;1.00;;;1.00;;
18383;SDS011;9318;48.644;9.456;2023-04-24T13:34:05;1.00;;;1.00;;
18383;SDS011;9318;48.644;9.456;2023-04-24T13:36:32;0.90;;;0.90;;
18383;SDS011;9318;48.644;9.456;2023-04-24T13:38:59;1.00;;;1.00;;
18383;SDS011;9318;48.644;9.456;2023-04-24T13:41:25;1.00;;;1.00;;
18383;SDS011;9318;48.644;9.456;2023-04-24T13:43:52;1.00;;;1.00;;
18383;SDS011;9318;48.644;9.456;2023-04-24T13:46:19;0.90;;;0.90;;
18383;SDS011;9318;48.644;9.456;2023-04-24T13:48:46;0.90;;;0.90;;
18383;SDS011;9318;48.644;9.456;2023-04-24T13:51:14;0.93;;;0.93;;
18383;SDS011;9318;48.644;9.456;2023-04-24T13:53:40;1.00;;;1.00;;
18383;SDS011;9318;48.644;9.456;2023-04-24T13:56:07;0.90;;;0.90;;
18383;SDS011;9318;48.644;9.456;2023-04-24T13:58:34;1.00;;;1.00;;
18383;SDS011;9318;48.644;9.456;2023-04-24T14:01:02;0.80;;;0.80;;
18383;SDS011;9318;48.644;9.456;2023-04-24T14:03:29;0.80;;;0.80;;
18383;SDS011;9318;48.644;9.456;2023-04-24T14:05:56;0.90;;;0.90;;
18383;SDS011;9318;48.644;9.456;2023-04-24T14:08:24;0.80;;;0.80;;
18383;SDS011;9318;48.644;9.456;2023-04-24T14:10:51;0.90;;;0.90;;
18383;SDS011;9318;48.644;9.456;2023-04-24T14:13:18;0.83;;;0.83;;
18383;SDS011;9318;48.644;9.456;2023-04-24T14:15:45;0.90;;;0.90;;
18383;SDS011;9318;48.644;9.456;2023-04-24T14:18:12;0.73;;;0.73;;
18383;SDS011;9318;48.644;9.456;2023-04-24T14:20:39;0.90;;;0.90;;
18383;SDS011;9318;48.644;9.456;2023-04-24T14:23:05;0.97;;;0.97;;
18383;SDS011;9318;48.644;9.456;2023-04-24T14:25:33;1.00;;;1.00;;
18383;SDS011;9318;48.644;9.456;2023-04-24T14:28:00;1.00;;;1.00;;
18383;SDS011;9318;48.644;9.456;2023-04-24T14:30:27;1.00;;;1.00;;
18383;SDS011;9318;48.644;9.456;2023-04-24T14:32:54;1.00;;;1.00;;
18383;SDS011;9318;48.644;9.456;2023-04-24T14:35:21;1.00;;;1.00;;
18383;SDS011;9318;48.644;9.456;2023-04-24T14:37:48;0.90;;;0.90;;
18383;SDS011;9318;48.644;9.456;2023-04-24T14:40:14;1.00;;;1.00;;
18383;SDS011;9318;48.644;9.456;2023-04-24T14:42:43;0.90;;;0.90;;
18383;SDS011;9318;48.644;9.456;2023-04-24T14:45:10;0.90;;;0.90;;
18383;SDS011;9318;48.644;9.456;2023-04-24T14:47:37;0.90;;;0.90;;
18383;SDS011;9318;48.644;9.456;2023-04-24T14:50:04;0.90;;;0.90;;
18383;SDS011;9318;48.644;9.456;2023-04-24T14:52:32;1.00;;;1.00;;
18383;SDS011;9318;48.644;9.456;2023-04-24T14:54:59;0.80;;;0.80;;
18383;SDS011;9318;48.644;9.456;2023-04-24T14:57:27;0.90;;;0.90;;
18383;SDS011;9318;48.644;9.456;2023-04-24T14:59:55;1.00;;;1.00;;
18383;SDS011;9318;48.644;9.456;2023-04-24T15:02:22;0.90;;;0.90;;
18383;SDS011;9318;48.644;9.456;2023-04-24T15:04:48;0.80;;;0.80;;
18383;SDS011;9318;48.644;9.456;2023-04-24T15:07:15;1.00;;;1.00;;
18383;SDS011;9318;48.644;9.456;2023-04-24T15:09:42;0.90;;;0.90;;